This is the latest recevied weather packets stored in our database for station/object IW1QQG-13. If no packets are shown the sender has not sent any weather packets the latest 10 day(s).
| Time | Temp. | Humidity | Pressure | Rain* | Wind** | Luminosity | Snow |
|---|---|---|---|---|---|---|---|
| 1777855549 | 13.89° C | 70% | 1017.6 hPa | 0 mm | - | 0 W/m² | - |
| 1777854949 | 13.89° C | 72% | 1017.6 hPa | 0 mm | - | 0 W/m² | - |
| 1777854349 | 13.89° C | 78% | 1017.9 hPa | 0 mm | - | 0 W/m² | - |
| 1777853749 | 14.44° C | 77% | 1017.9 hPa | 0 mm | - | 0 W/m² | - |
| 1777853149 | 14.44° C | 75% | 1017.9 hPa | 0 mm | - | 0 W/m² | - |
| 1777852549 | 13.89° C | 72% | 1017.9 hPa | 0 mm | - | 0 W/m² | - |
| 1777851949 | 13.89° C | 73% | 1017.9 hPa | 0 mm | - | 0 W/m² | - |
| 1777851349 | 13.89° C | 73% | 1017.9 hPa | 0 mm | - | 0 W/m² | - |
| 1777850749 | 14.44° C | 73% | 1018.3 hPa | 0 mm | - | 0 W/m² | - |
| 1777850148 | 13.89° C | 74% | 1018.3 hPa | 0 mm | - | 0 W/m² | - |
| 1777732828 | 20° C | 38% | 1023 hPa | 0 mm | - | - | - |
| 1777732228 | 20.56° C | 37% | 1023.4 hPa | 0 mm | - | - | - |
| 1777731628 | 21.11° C | 38% | 1023.4 hPa | 0 mm | - | - | - |
| 1777731029 | 21.11° C | 37% | 1023.4 hPa | 0 mm | - | 30 W/m² | - |
| 1777730428 | 20.56° C | 38% | 1023.7 hPa | 0 mm | - | - | - |
| 1777729828 | 20° C | 37% | 1024 hPa | 0 mm | - | - | - |
| 1777729228 | 20.56° C | 34% | 1024 hPa | 0 mm | - | - | - |
| 1777728628 | 20.56° C | 32% | 1024 hPa | 0 mm | - | - | - |
| 1777728028 | 20.56° C | 32% | 1024.4 hPa | 0 mm | - | - | - |
| 1777727430 | 20.56° C | 32% | 1024.4 hPa | 0 mm | - | - | - |
| 1777726828 | 20.56° C | 30% | 1024.4 hPa | 0 mm | - | 135 W/m² | - |
| 1777726228 | 20.56° C | 32% | 1024.4 hPa | 0 mm | - | 136 W/m² | - |
| 1777725628 | 21.67° C | 30% | 1024.4 hPa | 0 mm | - | 183 W/m² | - |
| 1777725028 | 21.11° C | 33% | 1024.7 hPa | 0 mm | - | 189 W/m² | - |
| 1777724428 | 21.11° C | 31% | 1024.7 hPa | 0 mm | - | 174 W/m² | - |
* Rain latest hour (hover to see other rain measurements)
** Current wind speed in m/s (hover to see current wind gust speed)